Station: Oenpelli Airport  

  Atmospheric Gas Attenuation - ITU Rec 676-11   ----------------- dB/100km -----------------
Date Time Temp RH % AH g/m3 Dew Point Wind Direction Speed kph Gust kph Barometer mB Rainfall Since 9am 24GHz 47GHz 76GHz 122GHz 134GHz 241GHz
02/09 15:20 33.1 31 11.1 13.7 9 17 1013.4 0 23.8 24.3 39.5 104.0 104.0 360.2
02/09 15:10 33.4 30 10.91 13.5 11 19 1013.5 0 23.4 24.0 38.8 102.0 101.5 351.6
02/09 15:00 33.6 32 11.76 14.6 9 17 1013.6 0 25.2 25.1 41.5 109.4 110.7 383.8
02/09 14:50 33.4 33 12 14.9 11 19 1013.8 0 25.7 25.5 42.5 111.9 113.7 394.3
02/09 14:40 34.2 32 12.14 15.1 13 24 1014 0 25.9 25.4 42.5 112.1 114.1 396.0
02/09 14:30 33.1 33 11.81 14.7 11 17 1014 0 25.3 25.3 42.0 110.5 112.0 388.2
02/09 14:20 33.3 31 11.22 13.9 15 26 1014.2 0 24.1 24.4 39.9 104.9 105.1 364.2
02/09 14:10 33.3 33 11.94 14.8 7 19 1014.3 0 25.5 25.4 42.3 111.5 113.2 392.5
02/09 14:00 33.2 33 11.88 14.8 13 26 1014.5 0 25.4 25.4 42.2 111.1 112.6 390.7
02/09 13:50 33.3 35 12.66 15.8 7 17 1014.7 0 27.0 26.5 44.9 118.2 121.5 421.5
02/09 13:40 32.2 35 11.95 14.8 6 6 1014.9 0 25.6 25.8 43.0 113.2 114.9 398.4
02/09 13:30 33.9 34 12.7 15.8 11 22 1014.9 0 27.1 26.4 44.7 117.8 121.0 420.1
02/09 13:20 32.8 35 12.33 15.7 15 19 1015.1 0 26.4 26.1 44.0 115.9 118.4 410.8
02/09 13:10 32.6 36 12.55 15.6 11 26 1015.3 0 26.8 26.5 44.9 118.3 121.3 420.8
02/09 13:00 31.4 38 12.43 15.4 13 24 1015.6 0 26.7 26.7 45.1 118.9 121.7 422.3
02/09 12:50 32.4 36 12.42 15.4 9 22 1015.8 0 26.6 26.4 44.6 117.4 120.1 416.7
02/09 12:40 32.7 37 12.97 16.1 7 9 1016 0 27.7 27.1 46.4 122.2 126.1 437.8
02/09 12:30 32.1 35 11.88 14.7 13 26 1016.3 0 25.5 25.7 42.8 112.8 114.4 396.5
02/09 12:20 31.9 40 13.44 16.6 15 28 1016.3 0 28.7 28.1 48.5 128.0 133.1 461.9
02/09 12:10 32.1 38 12.9 16 15 28 1016.5 0 27.6 27.2 46.5 122.5 126.3 438.3
02/09 12:00 31.7 38 12.63 15.6 13 22 1016.6 0 27.0 27.0 45.7 120.5 123.7 429.3
02/09 11:50 31.8 39 13.03 16.1 15 24 1016.8 0 27.9 27.5 47.1 124.2 128.4 445.4
02/09 11:40 30.5 44 13.71 16.9 11 24 1017 0 29.4 29.0 50.5 133.1 138.8 482.0
02/09 11:30 30.6 42 13.16 16.2 15 26 1017.2 0 28.2 28.1 48.3 127.4 131.9 457.8
02/09 11:20 31.1 41 13.19 16.3 13 24 1017.4 0 28.2 28.0 48.2 127.0 131.5 456.3
02/09 11:10 30.7 42 13.23 16.3 19 24 1017.6 0 28.3 28.2 48.6 128.0 132.7 460.4
02/09 11:00 29.9 44 13.27 16.3 11 22 1017.8 0 28.5 28.5 49.2 129.7 134.5 466.8
02/09 10:50 30.3 45 13.87 17 13 20 1018.1 0 29.7 29.3 51.2 135.2 141.3 490.6
02/09 10:40 30.1 45 13.72 16.9 13 19 1018.1 0 29.4 29.1 50.8 134.0 139.8 485.2
02/09 10:30 30 46 13.95 17.1 11 20 1018.3 0 29.9 29.5 51.7 136.5 142.9 496.0
02/09 10:20 29 48 13.79 16.9 13 20 1018.4 0 29.6 29.6 51.8 136.6 142.7 495.2
02/09 10:10 29.7 48 14.32 17.5 13 20 1018.5 0 30.7 30.2 53.4 140.9 148.2 514.4
02/09 10:00 29 49 14.08 17.2 13 19 1018.6 0 30.2 30.1 52.9 139.6 146.4 508.2
02/09 09:50 29 51 14.65 17.8 15 28 1018.6 0 31.4 31.0 55.2 145.6 153.8 533.9
02/09 09:40 28.6 52 14.62 17.8 15 24 1018.6 0 31.4 31.1 55.3 146.0 154.2 535.3
02/09 09:30 28 54 14.69 17.8 15 19 1018.6 0 31.6 31.4 56.0 147.9 156.3 542.6
02/09 09:20 27.8 54 14.53 17.6 15 24 1018.7 0 31.3 31.2 55.5 146.6 154.6 536.6
02/09 09:10 27.7 56 14.98 18.1 15 22 1018.6 0 32.2 32.0 57.4 151.6 160.8 558.1
02/09 09:00 27.1 58 15.01 18.1 17 24 1018.7 0 32.3 32.3 58.0 153.1 162.4 563.9
02/09 08:50 26.9 59 15.1 18.2 17 22 1018.7 0 32.5 32.5 58.5 154.5 164.1 569.6
02/09 08:40 26.4 60 14.94 18 9 20 1018.7 0 32.2 32.4 58.2 153.7 163.0 565.6
02/09 08:30 26.1 62 15.18 18.2 7 11 1018.7 0 32.7 32.9 59.5 157.0 166.9 579.3
02/09 08:20 25.8 64 15.41 18.5 7 9 1018.6 0 33.3 33.4 60.7 160.2 170.7 592.6
02/09 08:10 25.4 64 15.07 18.1 6 9 1018.5 0 32.6 33.0 59.5 157.1 166.9 579.1
02/09 08:00 25 66 15.19 18.2 4 7 1018.5 0 32.9 33.4 60.3 159.3 169.4 588.0
02/09 07:50 24.2 68 14.96 17.9 2 6 1018.5 0 32.4 33.3 60.0 158.3 168.0 582.8
02/09 07:40 23.5 71 15.01 17.9 0 0 1018.4 0 32.6 33.6 60.7 160.3 170.2 590.5
02/09 07:30 22.5 76 15.18 18.1 0 0 1018.2 0 33.0 34.3 62.3 164.4 174.9 606.7
02/09 07:20 21.4 83 15.56 18.5 2 2 1018.2 0 33.9 35.5 64.9 171.3 183.1 635.1
02/09 07:10 19.7 86 14.6 17.4 2 2 1018 0 32.0 34.4 61.9 163.4 172.8 599.1
02/09 07:00 19.4 86 14.35 17 2 4 1017.9 0 31.5 34.0 61.0 161.0 169.8 588.4
02/09 06:50 19.4 86 14.35 17 2 2 1017.7 0 31.5 34.0 61.0 161.0 169.7 588.4
02/09 06:40 19.6 85 14.35 17 4 4 1017.5 0 31.5 34.0 60.8 160.5 169.3 586.7
02/09 06:30 19.7 85 14.43 17.1 4 4 1017.4 0 31.7 34.1 61.1 161.3 170.2 590.0
02/09 06:20 19.9 85 14.6 17.3 4 4 1017.2 0 32.0 34.3 61.7 162.9 172.2 597.1
02/09 06:10 20.1 84 14.6 17.3 4 6 1017.1 0 32.0 34.2 61.5 162.4 171.8 595.5
02/09 06:00 20.3 83 14.6 17.3 6 7 1016.9 0 32.0 34.1 61.4 162.0 171.3 593.9
02/09 05:50 20.4 83 14.68 17.4 4 6 1016.8 0 32.2 34.2 61.6 162.7 172.2 597.2
02/09 05:40 20.5 82 14.59 17.3 4 7 1016.7 0 32.0 34.0 61.2 161.4 170.7 591.7
02/09 05:30 20.5 80 14.23 16.9 4 6 1016.5 0 31.2 33.3 59.5 157.1 165.4 573.4
02/09 05:20 20.7 80 14.4 17.1 6 7 1016.4 0 31.5 33.6 60.1 158.7 167.4 580.4
02/09 05:10 20.8 80 14.48 17.2 6 7 1016.3 0 31.7 33.7 60.4 159.4 168.3 583.7
02/09 05:00 21 79 14.47 17.2 4 6 1016.3 0 31.7 33.6 60.2 158.9 167.8 581.7
02/09 04:50 21.5 78 14.71 17.5 4 6 1016.3 0 32.1 33.8 60.9 160.7 170.1 590.0
02/09 04:40 21.8 78 14.96 17.8 6 7 1016.2 0 32.6 34.1 61.7 163.0 173.1 600.2
02/09 04:30 21.9 77 14.86 17.7 7 9 1016.3 0 32.4 33.9 61.2 161.6 171.4 594.4
02/09 04:20 21.6 79 14.98 17.8 7 9 1016.2 0 32.7 34.2 62.0 163.7 173.8 602.8
02/09 04:10 20.9 84 15.3 18.1 6 9 1016.1 0 33.4 35.1 64.0 169.0 180.1 624.8
02/09 04:00 19.6 86 14.52 17.2 6 7 1016.1 0 31.9 34.2 61.5 162.4 171.6 594.9
02/09 03:50 20.7 83 14.94 17.7 4 6 1016 0 32.7 34.5 62.5 165.1 175.3 607.8
02/09 03:40 20.3 86 15.12 17.9 2 4 1016 0 33.1 35.0 63.7 168.1 178.9 620.3
02/09 03:30 20.5 85 15.12 17.9 2 4 1016 0 33.1 34.9 63.5 167.7 178.4 618.7
02/09 03:20 20.7 85 15.3 18.1 2 4 1016 0 33.5 35.2 64.2 169.4 180.6 626.4
02/09 03:10 21.1 84 15.48 18.3 2 4 1015.9 0 33.8 35.3 64.6 170.7 182.3 632.4
02/09 03:00 21.7 81 15.45 18.3 4 6 1015.8 0 33.7 35.0 64.0 169.0 180.4 625.8
02/09 02:50 21.9 80 15.44 18.3 0 0 1015.9 0 33.7 34.9 63.8 168.4 179.8 623.7
02/09 02:40 22.4 78 15.49 18.5 0 0 1015.9 0 33.7 34.8 63.6 167.9 179.3 622.2
02/09 02:30 22.7 79 15.96 18.9 6 6 1015.9 0 34.7 35.5 65.4 172.9 185.5 643.8
02/09 02:20 22.9 79 16.14 19.1 6 7 1016 0 35.1 35.8 66.1 174.6 187.7 651.4
02/09 02:10 23.1 78 16.12 19.1 4 7 1016.1 0 35.0 35.7 65.8 173.9 186.9 648.7
02/09 02:00 23.3 78 16.31 19.2 6 6 1016.2 0 35.4 35.9 66.5 175.8 189.2 656.8
02/09 01:50 23.4 78 16.4 19.3 4 6 1016.3 0 35.6 36.1 66.9 176.6 190.3 660.6
02/09 01:40 23.5 78 16.49 19.4 6 6 1016.4 0 35.8 36.2 67.2 177.5 191.4 664.4
02/09 01:30 23.8 77 16.56 19.5 4 6 1016.5 0 35.9 36.2 67.2 177.7 191.7 665.5
02/09 01:20 24.1 76 16.63 19.6 6 7 1016.6 0 36.0 36.2 67.3 177.8 192.0 666.5
02/09 01:10 24.2 76 16.72 19.7 9 13 1016.6 0 36.2 36.3 67.6 178.7 193.1 670.3
02/09 01:00 24.3 76 16.82 19.8 9 13 1016.7 0 36.4 36.5 68.0 179.7 194.3 674.6
02/09 00:50 24.5 76 17.01 20 9 13 1016.8 0 36.8 36.7 68.7 181.5 196.6 682.6
02/09 00:40 24.6 76 17.1 20.1 11 15 1016.9 0 36.9 36.8 69.0 182.3 197.7 686.4
02/09 00:30 24.7 76 17.2 20.2 11 19 1017.1 0 37.1 37.0 69.4 183.3 198.9 690.8
02/09 00:20 24.7 76 17.2 20.2 11 19 1017.1 0 37.1 37.0 69.4 183.3 198.9 690.8
02/09 00:10 24.8 75 17.07 20.1 11 17 1017.1 0 36.9 36.7 68.7 181.5 196.7 683.2
02/09 00:00 24.8 75 17.07 20.1 13 17 1017.1 0 36.9 36.7 68.7 181.5 196.7 683.2
01/09 23:50 24.9 74 16.94 19.9 11 17 1017.2 0 36.6 36.4 68.0 179.8 194.6 675.6
01/09 23:40 25 73 16.8 19.8 11 17 1017.1 0 36.3 36.1 67.3 177.8 192.3 667.6
01/09 23:30 25.1 72 16.67 19.7 11 17 1017.2 0 36.0 35.9 66.6 176.1 190.1 660.2
01/09 23:20 25.4 71 16.71 19.8 11 19 1017.3 0 36.0 35.8 66.6 175.9 190.0 659.7
01/09 23:10 25.5 70 16.57 19.6 15 19 1017.3 0 35.7 35.5 65.9 174.0 187.7 651.7
01/09 23:00 25.6 69 16.43 19.5 13 17 1017.2 0 35.4 35.2 65.2 172.1 185.4 643.8
01/09 22:50 25.7 69 16.52 19.6 15 24 1017.3 0 35.6 35.4 65.5 173.0 186.5 647.6

Last Refresh: 02-Sep-2026 15:31:51

Bureau of Meteorology